Longtown, South Carolina
Current Conditions -  °F | °C
As of 3:55 PM on Wednesday 26 Nov 2014 (Local Time) from KFDW Reporting Station
Overcast Overcast  
Wind Chill: 55°   Ceiling: 5000
Heat Index: 55°   Visibility: 10mi
Dew Point: 45°   Wind: 3mph
Humidity: 67%   Direction: 350°N
Pressure: 30"   Gusts: NA
Location:  34.3435°N, 80.9048°W
Report Text: KFDW 262055Z AUTO 35003KT 10SM SCT031 SCT035 OVC050 13/07 A3000 RMK AO1
Loading
Personal Weather Stations






























Interactive Weather Map New forecast layout! Learn more

10-Day Weather Forecast

Advertisements
Track Severe Weather on mobile